createdAt,value
2017-10-23T00:00:12.179Z,9.30
2017-10-23T00:02:41.201Z,9.30
2017-10-23T00:05:09.476Z,9.20
2017-10-23T00:07:37.730Z,9.30
2017-10-23T00:10:06.030Z,9.30
2017-10-23T00:12:34.282Z,9.30
2017-10-23T00:15:04.046Z,9.10
2017-10-23T00:17:32.322Z,9.10
2017-10-23T00:20:00.591Z,9.10
2017-10-23T00:22:28.887Z,9.20
2017-10-23T00:24:57.910Z,9.10
2017-10-23T00:27:26.182Z,9.00
2017-10-23T00:29:54.429Z,9.10
2017-10-23T00:32:22.690Z,9.10
2017-10-23T00:34:50.967Z,9.10
2017-10-23T00:37:19.228Z,9.10
2017-10-23T00:39:47.531Z,9.00
2017-10-23T00:42:16.554Z,9.00
2017-10-23T00:44:44.815Z,9.00
2017-10-23T00:47:13.093Z,9.10
2017-10-23T00:49:41.343Z,9.00
2017-10-23T00:52:09.610Z,9.00
2017-10-23T00:54:37.883Z,8.90
2017-10-23T00:57:06.177Z,8.90
2017-10-23T00:59:35.200Z,8.90
2017-10-23T01:02:03.446Z,8.80
2017-10-23T01:04:31.723Z,8.90
2017-10-23T01:06:59.978Z,8.90
2017-10-23T01:09:28.255Z,8.90
2017-10-23T01:11:56.518Z,8.90
2017-10-23T01:14:24.790Z,8.90
2017-10-23T01:16:53.038Z,8.90
2017-10-23T01:19:21.338Z,8.90
2017-10-23T01:21:50.368Z,8.80
2017-10-23T01:24:18.631Z,8.70
2017-10-23T01:26:46.902Z,8.80
2017-10-23T01:29:15.154Z,8.70
2017-10-23T01:31:43.434Z,8.60
2017-10-23T01:34:11.694Z,8.60
2017-10-23T01:36:40.179Z,8.60
2017-10-23T01:39:08.438Z,8.60
2017-10-23T01:41:36.693Z,8.60
2017-10-23T01:44:04.980Z,8.60
2017-10-23T01:46:33.998Z,8.50
2017-10-23T01:49:02.291Z,8.50
2017-10-23T01:51:32.053Z,8.50
2017-10-23T01:54:00.335Z,8.60
2017-10-23T01:56:28.651Z,8.50
2017-10-23T01:58:56.921Z,8.60
2017-10-23T02:01:25.536Z,8.50
2017-10-23T02:03:53.790Z,8.50
2017-10-23T02:06:22.066Z,8.50
2017-10-23T02:08:50.322Z,8.50
2017-10-23T02:11:18.622Z,8.50
2017-10-23T02:13:47.653Z,8.60
2017-10-23T02:16:15.904Z,8.50
2017-10-23T02:18:44.175Z,8.60
2017-10-23T02:21:12.434Z,8.60
2017-10-23T02:23:40.734Z,8.70
2017-10-23T02:26:09.755Z,8.70
2017-10-23T02:28:38.165Z,8.60
2017-10-23T02:31:06.414Z,8.70
2017-10-23T02:33:34.662Z,8.70
2017-10-23T02:36:02.987Z,8.70
2017-10-23T02:38:31.245Z,8.70
2017-10-23T02:40:59.519Z,8.70
2017-10-23T02:43:27.774Z,8.70
2017-10-23T02:45:56.047Z,8.80
2017-10-23T02:48:24.314Z,8.80
2017-10-23T02:50:52.582Z,8.90
2017-10-23T02:53:20.843Z,8.90
2017-10-23T02:55:49.165Z,8.80
2017-10-23T02:58:17.406Z,8.70
2017-10-23T03:00:46.484Z,8.70
2017-10-23T03:03:15.527Z,8.70
2017-10-23T03:05:43.779Z,8.60
2017-10-23T03:08:12.059Z,8.70
2017-10-23T03:10:40.315Z,8.80
2017-10-23T03:13:08.608Z,8.70
2017-10-23T03:15:37.627Z,8.70
2017-10-23T03:18:05.884Z,8.60
2017-10-23T03:20:34.162Z,8.70
2017-10-23T03:23:02.423Z,8.70
2017-10-23T03:25:30.715Z,8.60
2017-10-23T03:27:58.975Z,8.70
2017-10-23T03:30:27.452Z,8.70
2017-10-23T03:32:55.711Z,8.70
2017-10-23T03:35:23.962Z,8.70
2017-10-23T03:37:52.230Z,8.80
2017-10-23T03:40:21.278Z,8.80
2017-10-23T03:42:49.554Z,8.80
2017-10-23T03:45:17.814Z,8.80
2017-10-23T03:47:46.875Z,8.80
2017-10-23T03:50:15.122Z,8.80
2017-10-23T03:52:43.379Z,8.70
2017-10-23T03:55:11.663Z,8.60
2017-10-23T03:57:39.927Z,8.70
2017-10-23T04:00:08.196Z,8.60
2017-10-23T04:02:36.451Z,8.60
2017-10-23T04:05:04.723Z,8.60
2017-10-23T04:07:32.979Z,8.60
2017-10-23T04:10:01.262Z,8.60
2017-10-23T04:12:30.287Z,8.60
2017-10-23T04:14:58.546Z,8.50
2017-10-23T04:17:26.822Z,8.60
2017-10-23T04:19:55.083Z,8.60
2017-10-23T04:22:23.359Z,8.60
2017-10-23T04:24:51.625Z,8.50
2017-10-23T04:27:19.914Z,8.50
2017-10-23T04:29:48.935Z,8.40
2017-10-23T04:32:17.219Z,8.40
2017-10-23T04:34:45.486Z,8.50
2017-10-23T04:37:13.754Z,8.50
2017-10-23T04:39:42.030Z,8.40
2017-10-23T04:42:10.288Z,8.30
2017-10-23T04:44:38.538Z,8.40
2017-10-23T04:47:06.817Z,8.50
2017-10-23T04:49:35.834Z,8.50
2017-10-23T04:52:04.349Z,8.50
2017-10-23T04:54:32.618Z,8.50
2017-10-23T04:57:00.884Z,8.60
2017-10-23T04:59:29.162Z,8.60
2017-10-23T05:01:58.188Z,8.70
2017-10-23T05:04:26.487Z,8.60
2017-10-23T05:06:55.518Z,8.60
2017-10-23T05:09:23.782Z,8.60
2017-10-23T05:11:52.055Z,8.60
2017-10-23T05:14:20.307Z,8.50
2017-10-23T05:16:48.629Z,8.50
2017-10-23T05:19:17.646Z,8.50
2017-10-23T05:21:45.966Z,8.40
2017-10-23T05:24:15.034Z,8.40
2017-10-23T05:26:43.286Z,8.40
2017-10-23T05:29:11.563Z,8.40
2017-10-23T05:31:40.588Z,8.50
2017-10-23T05:34:08.868Z,8.50
2017-10-23T05:36:37.124Z,8.60
2017-10-23T05:39:05.418Z,8.60
2017-10-23T05:41:34.451Z,8.50
2017-10-23T05:44:02.700Z,8.40
2017-10-23T05:46:30.970Z,8.50
2017-10-23T05:48:59.223Z,8.50
2017-10-23T05:51:28.450Z,8.50
2017-10-23T05:53:57.494Z,8.50
2017-10-23T05:56:25.742Z,8.50
2017-10-23T05:58:54.044Z,8.50
2017-10-23T06:01:22.295Z,8.50
2017-10-23T06:03:50.552Z,8.50
2017-10-23T06:06:18.827Z,8.40
2017-10-23T06:08:47.087Z,8.40
2017-10-23T06:11:15.362Z,8.40
2017-10-23T06:13:43.616Z,8.40
2017-10-23T06:16:12.091Z,8.30
2017-10-23T06:18:40.347Z,8.40
2017-10-23T06:21:08.608Z,8.40
2017-10-23T06:23:36.890Z,8.50
2017-10-23T06:26:05.906Z,8.60
2017-10-23T06:28:34.210Z,8.50
2017-10-23T06:31:02.462Z,8.50
2017-10-23T06:33:30.730Z,8.50
2017-10-23T06:35:59.008Z,8.50
2017-10-23T06:38:28.032Z,8.60
2017-10-23T06:40:56.303Z,8.50
2017-10-23T06:43:24.563Z,8.50
2017-10-23T06:45:52.845Z,8.70
2017-10-23T06:48:21.114Z,8.70
2017-10-23T06:50:50.143Z,8.70
2017-10-23T06:53:18.416Z,8.60
2017-10-23T06:55:46.693Z,8.70
2017-10-23T06:58:14.960Z,8.70
2017-10-23T07:00:43.211Z,8.70
2017-10-23T07:03:11.483Z,8.70
2017-10-23T07:05:39.758Z,8.80
2017-10-23T07:08:08.058Z,8.80
2017-10-23T07:10:36.328Z,8.70
2017-10-23T07:13:04.586Z,8.70
2017-10-23T07:15:32.861Z,8.70
2017-10-23T07:18:01.127Z,8.80
2017-10-23T07:20:29.403Z,8.90
2017-10-23T07:22:57.655Z,8.90
2017-10-23T07:25:26.259Z,8.90
2017-10-23T07:27:55.290Z,9.00
2017-10-23T07:30:23.558Z,8.90
2017-10-23T07:32:51.834Z,9.00
2017-10-23T07:35:20.100Z,8.80
2017-10-23T07:37:48.385Z,8.80
2017-10-23T07:40:17.410Z,8.80
2017-10-23T07:42:45.690Z,8.70
2017-10-23T07:45:13.947Z,8.80
2017-10-23T07:47:42.242Z,8.90
2017-10-23T07:50:10.499Z,8.90
2017-10-23T07:52:38.802Z,8.90
2017-10-23T07:55:07.063Z,9.00
2017-10-23T07:57:35.390Z,9.00
2017-10-23T08:00:05.143Z,9.00
2017-10-23T08:02:33.399Z,9.00
2017-10-23T08:05:01.675Z,9.00
2017-10-23T08:07:29.948Z,8.90
2017-10-23T08:09:58.215Z,8.90
2017-10-23T08:12:26.479Z,8.90
2017-10-23T08:14:54.791Z,8.90
2017-10-23T08:17:23.047Z,8.90
2017-10-23T08:19:51.323Z,8.90
2017-10-23T08:22:19.580Z,8.90
2017-10-23T08:24:47.864Z,8.90
2017-10-23T08:27:16.131Z,9.00
2017-10-23T08:29:44.399Z,9.00
2017-10-23T08:32:13.730Z,9.00
2017-10-23T08:34:42.001Z,9.10
2017-10-23T08:37:10.284Z,9.10
2017-10-23T08:39:38.543Z,9.20
2017-10-23T08:42:06.803Z,9.20
2017-10-23T08:44:35.075Z,9.20
2017-10-23T08:47:04.223Z,9.30
2017-10-23T08:49:32.478Z,9.40
2017-10-23T08:52:00.737Z,9.40
2017-10-23T08:54:29.042Z,9.40
2017-10-23T08:56:57.306Z,9.50
2017-10-23T08:59:25.567Z,9.50
2017-10-23T09:01:53.838Z,9.50
2017-10-23T09:04:22.118Z,9.50
2017-10-23T09:06:50.370Z,9.50
2017-10-23T09:09:18.631Z,9.60
2017-10-23T09:11:46.911Z,9.50
2017-10-23T09:14:15.943Z,9.50
2017-10-23T09:16:44.214Z,9.50
2017-10-23T09:19:12.548Z,9.50
2017-10-23T09:21:40.832Z,9.60
2017-10-23T09:24:09.095Z,9.60
2017-10-23T09:26:37.371Z,9.50
2017-10-23T09:29:05.639Z,9.50
2017-10-23T09:31:33.898Z,9.40
2017-10-23T09:34:02.279Z,9.50
2017-10-23T09:36:30.522Z,9.60
2017-10-23T09:38:58.801Z,9.60
2017-10-23T09:41:27.819Z,9.70
2017-10-23T09:43:56.227Z,9.60
2017-10-23T09:46:25.991Z,9.60
2017-10-23T09:48:54.250Z,9.60
2017-10-23T09:51:22.522Z,9.60
2017-10-23T09:53:50.783Z,9.70
2017-10-23T09:56:19.062Z,9.80
2017-10-23T09:58:47.326Z,9.80
2017-10-23T10:01:15.804Z,9.80
2017-10-23T10:03:44.827Z,9.70
2017-10-23T10:06:13.091Z,9.60
2017-10-23T10:08:41.362Z,9.80
2017-10-23T10:11:09.630Z,9.90
2017-10-23T10:13:37.902Z,9.90
2017-10-23T10:16:06.159Z,9.90
2017-10-23T10:18:34.439Z,10.00
2017-10-23T10:21:02.699Z,10.10
2017-10-23T10:23:30.998Z,10.10
2017-10-23T10:25:59.267Z,10.10
2017-10-23T10:28:27.526Z,10.20
2017-10-23T10:30:55.811Z,10.30
2017-10-23T10:33:24.095Z,10.30
2017-10-23T10:35:52.379Z,10.30
2017-10-23T10:38:21.429Z,10.30
2017-10-23T10:40:49.698Z,10.30
2017-10-23T10:43:17.963Z,10.40
2017-10-23T10:45:46.300Z,10.30
2017-10-23T10:48:14.562Z,10.40
2017-10-23T10:50:42.823Z,10.50
2017-10-23T10:53:11.147Z,10.50
2017-10-23T10:55:39.472Z,10.50
2017-10-23T10:58:07.751Z,10.50
2017-10-23T11:00:36.783Z,10.60
2017-10-23T11:03:05.058Z,10.60
2017-10-23T11:05:33.327Z,10.70
2017-10-23T11:08:01.602Z,10.70
2017-10-23T11:10:29.862Z,10.80
2017-10-23T11:12:58.323Z,10.80
2017-10-23T11:15:26.588Z,10.80
2017-10-23T11:17:54.886Z,10.90
2017-10-23T11:20:23.162Z,11.00
2017-10-23T11:22:51.442Z,11.20
2017-10-23T11:25:19.722Z,11.30
2017-10-23T11:27:48.064Z,11.30
2017-10-23T11:30:16.314Z,11.30
2017-10-23T11:32:44.586Z,11.40
2017-10-23T11:35:12.866Z,11.40
2017-10-23T11:37:41.121Z,11.30
2017-10-23T11:40:09.415Z,11.30
2017-10-23T11:42:38.443Z,11.30
2017-10-23T11:45:06.763Z,11.20
2017-10-23T11:47:35.791Z,11.10
2017-10-23T11:50:04.052Z,11.10
2017-10-23T11:52:32.326Z,11.10
2017-10-23T11:55:00.587Z,11.10
2017-10-23T11:57:28.872Z,11.10
2017-10-23T11:59:57.135Z,11.10
2017-10-23T12:02:25.410Z,11.10
2017-10-23T12:04:54.478Z,11.20
2017-10-23T12:07:22.745Z,11.10
2017-10-23T12:09:51.783Z,11.10
2017-10-23T12:12:20.089Z,11.10
2017-10-23T12:14:49.123Z,11.00
2017-10-23T12:17:17.399Z,11.00
2017-10-23T12:19:45.681Z,11.10
2017-10-23T12:22:13.938Z,11.10
2017-10-23T12:24:42.218Z,11.00
2017-10-23T12:27:11.255Z,11.10
2017-10-23T12:29:39.549Z,11.10
2017-10-23T12:32:08.583Z,11.10
2017-10-23T12:34:36.858Z,11.10
2017-10-23T12:37:05.122Z,11.20
2017-10-23T12:39:34.907Z,11.10
2017-10-23T12:42:03.496Z,11.10
2017-10-23T12:44:31.798Z,11.10
2017-10-23T12:47:00.058Z,11.10
2017-10-23T12:49:28.318Z,11.10
2017-10-23T12:51:56.599Z,11.10
2017-10-23T12:54:24.862Z,11.00
2017-10-23T12:56:53.143Z,11.00
2017-10-23T12:59:21.431Z,11.10
2017-10-23T13:01:51.238Z,11.30
2017-10-23T13:04:20.271Z,11.30
2017-10-23T13:06:48.530Z,11.30
2017-10-23T13:09:16.814Z,11.30
2017-10-23T13:11:45.072Z,11.30
2017-10-23T13:14:13.348Z,11.30
2017-10-23T13:16:41.620Z,11.30
2017-10-23T13:19:09.926Z,11.10
2017-10-23T13:21:38.192Z,11.00
2017-10-23T13:24:06.458Z,11.00
2017-10-23T13:26:34.751Z,10.90
2017-10-23T13:29:03.006Z,10.90
2017-10-23T13:31:31.312Z,10.70
2017-10-23T13:33:59.562Z,10.60
2017-10-23T13:36:28.622Z,10.50
2017-10-23T13:38:57.650Z,10.40
2017-10-23T13:41:25.909Z,10.40
2017-10-23T13:43:54.198Z,10.60
2017-10-23T13:46:22.472Z,10.70
2017-10-23T13:48:51.543Z,11.10
2017-10-23T13:51:19.822Z,11.10
2017-10-23T13:53:48.119Z,11.20
2017-10-23T13:56:16.396Z,11.40
2017-10-23T13:58:44.680Z,11.70
2017-10-23T14:01:12.970Z,11.90
2017-10-23T14:03:42.006Z,12.10
2017-10-23T14:06:10.291Z,12.00
2017-10-23T14:08:38.567Z,12.00
2017-10-23T14:11:06.876Z,11.90
2017-10-23T14:13:35.147Z,11.80
2017-10-23T14:16:03.406Z,11.80
2017-10-23T14:18:31.685Z,11.70
2017-10-23T14:20:59.947Z,11.60
2017-10-23T14:23:28.294Z,11.50
2017-10-23T14:25:56.567Z,11.50
2017-10-23T14:28:24.874Z,11.40
2017-10-23T14:30:53.908Z,11.30
2017-10-23T14:33:22.204Z,11.30
2017-10-23T14:35:50.459Z,11.30
2017-10-23T14:38:18.802Z,11.20
2017-10-23T14:40:47.050Z,11.10
2017-10-23T14:43:15.514Z,11.10
2017-10-23T14:45:44.166Z,10.90
2017-10-23T14:48:12.426Z,10.90
2017-10-23T14:50:40.706Z,10.90
2017-10-23T14:53:08.977Z,10.90
2017-10-23T14:55:37.269Z,10.80
2017-10-23T14:58:06.297Z,10.80
2017-10-23T15:00:34.558Z,10.80
2017-10-23T15:03:02.846Z,10.70
2017-10-23T15:05:31.110Z,10.60
2017-10-23T15:07:59.395Z,10.50
2017-10-23T15:10:28.428Z,10.40
2017-10-23T15:12:56.741Z,10.40
2017-10-23T15:15:25.783Z,10.20
2017-10-23T15:17:54.045Z,10.20
2017-10-23T15:20:22.349Z,10.20
2017-10-23T15:22:51.375Z,10.20
2017-10-23T15:25:19.653Z,10.10
2017-10-23T15:27:47.910Z,10.20
2017-10-23T15:30:16.216Z,10.20
2017-10-23T15:32:45.250Z,10.10
2017-10-23T15:35:13.508Z,10.10
2017-10-23T15:37:41.786Z,10.10
2017-10-23T15:40:10.118Z,10.20
2017-10-23T15:42:38.386Z,10.20
2017-10-23T15:45:06.651Z,10.10
2017-10-23T15:47:34.947Z,10.00
2017-10-23T15:50:04.005Z,10.20
2017-10-23T15:52:32.259Z,10.10
2017-10-23T15:55:00.534Z,10.20
2017-10-23T15:57:28.803Z,10.20
2017-10-23T15:59:57.102Z,10.20
2017-10-23T16:02:25.354Z,10.10
2017-10-23T16:04:53.791Z,10.10
2017-10-23T16:07:23.555Z,10.00
2017-10-23T16:09:51.813Z,10.00
2017-10-23T16:12:20.103Z,10.10
2017-10-23T16:14:48.356Z,10.00
2017-10-23T16:17:16.646Z,10.00
2017-10-23T16:19:45.674Z,10.10
2017-10-23T16:22:13.973Z,10.00
2017-10-23T16:24:42.213Z,10.20
2017-10-23T16:27:10.493Z,10.00
2017-10-23T16:29:38.765Z,10.00
2017-10-23T16:32:07.812Z,10.10
2017-10-23T16:34:36.084Z,10.10
2017-10-23T16:37:04.366Z,10.20
2017-10-23T16:39:33.398Z,10.10
2017-10-23T16:42:01.683Z,10.00
2017-10-23T16:44:29.962Z,10.00
2017-10-23T16:46:58.226Z,10.00
2017-10-23T16:49:26.506Z,10.00
2017-10-23T16:51:54.770Z,10.00
2017-10-23T16:54:23.042Z,10.10
2017-10-23T16:56:51.306Z,10.10
2017-10-23T16:59:19.671Z,10.10
2017-10-23T17:01:47.972Z,10.00
2017-10-23T17:04:16.251Z,10.10
2017-10-23T17:06:44.523Z,10.00
2017-10-23T17:09:13.551Z,10.10
2017-10-23T17:11:41.830Z,10.10
2017-10-23T17:14:10.094Z,10.00
2017-10-23T17:16:38.491Z,10.10
2017-10-23T17:19:07.522Z,10.00
2017-10-23T17:21:35.800Z,10.00
2017-10-23T17:24:04.097Z,10.00
2017-10-23T17:26:32.363Z,10.10
2017-10-23T17:29:00.645Z,10.10
2017-10-23T17:31:28.914Z,10.10
2017-10-23T17:33:57.423Z,10.00
2017-10-23T17:36:26.456Z,10.10
2017-10-23T17:38:54.728Z,10.00
2017-10-23T17:41:22.998Z,10.10
2017-10-23T17:43:51.266Z,10.10
2017-10-23T17:46:19.546Z,10.20
2017-10-23T17:48:47.836Z,10.20
2017-10-23T17:51:16.165Z,10.10
2017-10-23T17:53:44.431Z,10.10
2017-10-23T17:56:12.698Z,10.10
2017-10-23T17:58:40.987Z,10.10
2017-10-23T18:01:09.246Z,10.00
2017-10-23T18:03:37.525Z,10.10
2017-10-23T18:06:05.786Z,10.00
2017-10-23T18:08:34.465Z,10.00
2017-10-23T18:11:02.727Z,10.10
2017-10-23T18:13:31.039Z,10.00
2017-10-23T18:16:00.063Z,10.00
2017-10-23T18:18:28.331Z,10.00
2017-10-23T18:20:56.659Z,10.00
2017-10-23T18:23:24.926Z,10.10
2017-10-23T18:25:53.203Z,10.10
2017-10-23T18:28:21.468Z,10.10
2017-10-23T18:30:50.152Z,10.10
2017-10-23T18:33:18.689Z,10.10
2017-10-23T18:35:48.048Z,10.20
2017-10-23T18:38:16.330Z,10.20
2017-10-23T18:40:44.594Z,10.20
2017-10-23T18:43:14.512Z,10.20
2017-10-23T18:45:42.770Z,10.10
2017-10-23T18:48:11.086Z,10.20
2017-10-23T18:50:39.355Z,10.10
2017-10-23T18:53:07.619Z,10.10
2017-10-23T18:55:37.202Z,10.20
2017-10-23T18:58:06.231Z,10.10
2017-10-23T19:00:34.514Z,10.10
2017-10-23T19:03:02.811Z,10.20
2017-10-23T19:05:31.089Z,10.10
2017-10-23T19:07:59.352Z,10.20
2017-10-23T19:10:27.633Z,10.20
2017-10-23T19:12:55.934Z,10.20
2017-10-23T19:15:24.186Z,10.20
2017-10-23T19:17:52.481Z,10.20
2017-10-23T19:20:20.734Z,10.20
2017-10-23T19:22:49.782Z,10.10
2017-10-23T19:25:18.050Z,10.10
2017-10-23T19:27:46.351Z,10.30
2017-10-23T19:30:14.613Z,10.20
2017-10-23T19:32:43.643Z,10.20
2017-10-23T19:35:11.970Z,10.10
2017-10-23T19:37:40.238Z,10.10
2017-10-23T19:40:08.518Z,10.20
2017-10-23T19:42:36.792Z,10.20
2017-10-23T19:45:05.087Z,10.00
2017-10-23T19:47:33.367Z,10.10
2017-10-23T19:50:02.390Z,10.20
2017-10-23T19:52:30.679Z,10.20
2017-10-23T19:54:58.939Z,10.20
2017-10-23T19:57:27.211Z,10.20
2017-10-23T19:59:56.242Z,10.20
2017-10-23T20:02:24.568Z,10.10
2017-10-23T20:04:52.839Z,10.20
2017-10-23T20:07:21.099Z,10.20
2017-10-23T20:09:49.379Z,10.20
2017-10-23T20:12:17.654Z,10.20
2017-10-23T20:14:45.925Z,10.10
2017-10-23T20:17:14.194Z,10.10
2017-10-23T20:19:42.566Z,10.10
2017-10-23T20:22:10.862Z,10.10
2017-10-23T20:24:39.179Z,10.00
2017-10-23T20:27:07.444Z,10.10
2017-10-23T20:29:35.718Z,10.10
2017-10-23T20:32:03.998Z,10.00
2017-10-23T20:34:33.031Z,10.10
2017-10-23T20:37:01.307Z,10.00
2017-10-23T20:39:31.278Z,10.10
2017-10-23T20:41:59.599Z,10.10
2017-10-23T20:44:28.750Z,10.10
2017-10-23T20:46:57.038Z,10.10
2017-10-23T20:49:26.094Z,10.10
2017-10-23T20:51:54.351Z,10.00
2017-10-23T20:54:22.646Z,10.00
2017-10-23T20:56:51.672Z,10.00
2017-10-23T20:59:20.269Z,10.00
2017-10-23T21:01:48.543Z,10.10
2017-10-23T21:04:17.575Z,10.10
2017-10-23T21:06:45.856Z,10.00
2017-10-23T21:09:14.136Z,10.10
2017-10-23T21:11:42.419Z,10.20
2017-10-23T21:14:11.460Z,10.20
2017-10-23T21:16:39.762Z,10.10
2017-10-23T21:19:08.038Z,10.10
2017-10-23T21:21:36.299Z,10.10
2017-10-23T21:24:04.574Z,10.20
2017-10-23T21:26:32.842Z,10.30
2017-10-23T21:29:01.124Z,10.10
2017-10-23T21:31:29.390Z,10.10
2017-10-23T21:33:57.686Z,10.10
2017-10-23T21:36:26.713Z,10.30
2017-10-23T21:38:54.970Z,10.20
2017-10-23T21:41:23.258Z,10.20
2017-10-23T21:43:51.535Z,10.20
2017-10-23T21:46:32.530Z,10.30
2017-10-23T21:49:00.802Z,10.30
2017-10-23T21:51:29.206Z,10.20
2017-10-23T21:53:57.478Z,10.30
2017-10-23T21:56:26.508Z,10.30
2017-10-23T21:58:54.893Z,10.20
2017-10-23T22:01:23.138Z,10.30
2017-10-23T22:03:51.418Z,10.20
2017-10-23T22:06:19.682Z,10.20
2017-10-23T22:08:47.982Z,10.20
2017-10-23T22:11:17.016Z,10.20
2017-10-23T22:13:45.282Z,10.20
2017-10-23T22:16:13.559Z,10.20
2017-10-23T22:18:41.821Z,10.20
2017-10-23T22:21:10.887Z,10.20
2017-10-23T22:23:39.147Z,10.10
2017-10-23T22:26:07.456Z,10.20
2017-10-23T22:28:35.718Z,10.20
2017-10-23T22:31:03.982Z,10.20
2017-10-23T22:33:32.254Z,10.20
2017-10-23T22:36:00.559Z,10.30
2017-10-23T22:38:28.823Z,10.20
2017-10-23T22:40:57.091Z,10.20
2017-10-23T22:43:25.371Z,10.20
2017-10-23T22:45:54.406Z,10.20
2017-10-23T22:48:22.690Z,10.20
2017-10-23T22:50:50.955Z,10.30
2017-10-23T22:53:19.262Z,10.30
2017-10-23T22:55:47.530Z,10.30
2017-10-23T22:58:15.794Z,10.30
2017-10-23T23:00:44.071Z,10.20
2017-10-23T23:03:12.341Z,10.30
2017-10-23T23:05:40.616Z,10.30
2017-10-23T23:08:08.883Z,10.30
2017-10-23T23:10:37.210Z,10.30
2017-10-23T23:13:05.487Z,10.30
2017-10-23T23:15:33.763Z,10.30
2017-10-23T23:18:02.117Z,10.30
2017-10-23T23:20:30.379Z,10.20
2017-10-23T23:22:58.703Z,10.30
2017-10-23T23:25:26.974Z,10.30
2017-10-23T23:27:55.304Z,10.30
2017-10-23T23:30:23.578Z,10.40
2017-10-23T23:32:51.851Z,10.40
2017-10-23T23:35:20.142Z,10.40
2017-10-23T23:37:48.427Z,10.40
2017-10-23T23:40:16.693Z,10.40
2017-10-23T23:42:45.718Z,10.30
2017-10-23T23:45:14.014Z,10.30
2017-10-23T23:47:42.278Z,10.30
2017-10-23T23:50:10.548Z,10.30
2017-10-23T23:52:38.864Z,10.30
2017-10-23T23:55:07.126Z,10.40
2017-10-23T23:57:35.418Z,10.40
